createdAt,value
2018-07-09T00:00:27.482Z,58.97
2018-07-09T00:01:07.892Z,58.78
2018-07-09T00:01:48.349Z,58.59
2018-07-09T00:02:28.743Z,59.27
2018-07-09T00:03:09.139Z,58.97
2018-07-09T00:03:49.558Z,59.33
2018-07-09T00:04:29.948Z,59.07
2018-07-09T00:05:10.369Z,59.36
2018-07-09T00:05:50.777Z,58.97
2018-07-09T00:06:31.206Z,59.36
2018-07-09T00:07:11.627Z,59.55
2018-07-09T00:07:51.978Z,58.97
2018-07-09T00:08:32.403Z,58.88
2018-07-09T00:09:12.831Z,59.07
2018-07-09T00:09:53.227Z,58.97
2018-07-09T00:10:33.672Z,58.97
2018-07-09T00:11:14.081Z,58.97
2018-07-09T00:11:54.543Z,59.17
2018-07-09T00:12:34.943Z,59.07
2018-07-09T00:13:15.379Z,58.97
2018-07-09T00:13:55.766Z,58.88
2018-07-09T00:14:36.193Z,59.17
2018-07-09T00:15:16.594Z,58.49
2018-07-09T00:15:57.030Z,59.07
2018-07-09T00:16:37.420Z,58.97
2018-07-09T00:17:17.826Z,59.07
2018-07-09T00:17:58.232Z,59.07
2018-07-09T00:18:38.655Z,59.36
2018-07-09T00:19:19.084Z,59.17
2018-07-09T00:19:59.502Z,59.27
2018-07-09T00:20:39.964Z,59.07
2018-07-09T00:21:20.414Z,58.97
2018-07-09T00:22:00.825Z,59.17
2018-07-09T00:22:41.385Z,58.97
2018-07-09T00:23:21.640Z,59.36
2018-07-09T00:24:02.042Z,59.07
2018-07-09T00:24:42.481Z,59.27
2018-07-09T00:25:22.847Z,59.17
2018-07-09T00:26:03.217Z,59.17
2018-07-09T00:26:43.745Z,60.03
2018-07-09T00:27:24.196Z,59.55
2018-07-09T00:28:05.112Z,59.55
2018-07-09T00:28:45.564Z,59.65
2018-07-09T00:29:26.151Z,59.65
2018-07-09T00:30:06.526Z,60
2018-07-09T00:32:45.166Z,59.84
2018-07-09T00:33:26.492Z,60.49
2018-07-09T00:34:06.794Z,60.32
2018-07-09T00:34:47.286Z,60.3
2018-07-09T00:35:27.633Z,60.03
2018-07-09T00:36:08.045Z,60
2018-07-09T00:36:48.472Z,60.42
2018-07-09T00:37:28.865Z,60.42
2018-07-09T00:38:09.332Z,60.58
2018-07-09T00:38:49.756Z,60.39
2018-07-09T00:41:04.881Z,60.87
2018-07-09T00:41:57.285Z,60.97
2018-07-09T00:43:45.538Z,60.87
2018-07-09T00:44:27.290Z,60.68
2018-07-09T00:45:07.883Z,61.25
2018-07-09T00:45:48.663Z,60.87
2018-07-09T00:46:28.895Z,61.16
2018-07-09T00:47:09.523Z,61.16
2018-07-09T00:47:49.805Z,60.87
2018-07-09T00:48:30.259Z,61.07
2018-07-09T00:49:10.644Z,61.35
2018-07-09T00:49:51.055Z,61.45
2018-07-09T00:50:31.446Z,61.25
2018-07-09T00:51:12.462Z,61.25
2018-07-09T00:51:52.870Z,61.65
2018-07-09T00:52:33.366Z,61.83
2018-07-09T00:53:13.729Z,61.74
2018-07-09T00:53:54.378Z,62.03
2018-07-09T00:54:34.609Z,61.71
2018-07-09T00:55:15.044Z,61.42
2018-07-09T00:55:55.503Z,61.61
2018-07-09T00:56:35.872Z,61.8
2018-07-09T00:57:16.283Z,62.12
2018-07-09T00:57:56.724Z,61.9
2018-07-09T00:58:37.076Z,62.38
2018-07-09T00:59:17.529Z,62.09
2018-07-09T00:59:58.000Z,62.19
2018-07-09T01:00:38.405Z,62.38
2018-07-09T01:01:18.778Z,62.38
2018-07-09T01:03:35.274Z,62.19
2018-07-09T01:05:42.053Z,62.67
2018-07-09T01:06:22.135Z,62.87
2018-07-09T01:07:02.581Z,62.87
2018-07-09T01:07:42.957Z,62.87
2018-07-09T01:08:23.423Z,62.87
2018-07-09T01:09:03.823Z,62.96
2018-07-09T01:09:44.222Z,63.34
2018-07-09T01:14:47.332Z,63.06
2018-07-09T01:15:27.679Z,63.06
2018-07-09T01:16:08.201Z,63.06
2018-07-09T01:16:48.456Z,63.22
2018-07-09T01:17:29.089Z,63.64
2018-07-09T01:18:09.958Z,63.54
2018-07-09T01:18:50.134Z,63.64
2018-07-09T01:19:30.527Z,63.54
2018-07-09T01:20:10.932Z,63.73
2018-07-09T01:20:51.356Z,63.7
2018-07-09T01:21:31.950Z,63.89
2018-07-09T01:22:12.373Z,63.7
2018-07-09T01:22:52.784Z,64.02
2018-07-09T01:23:33.147Z,63.89
2018-07-09T01:24:13.551Z,64.02
2018-07-09T01:24:54.523Z,63.99
2018-07-09T01:25:35.010Z,64.37
2018-07-09T01:26:15.443Z,63.7
2018-07-09T01:26:55.780Z,63.99
2018-07-09T01:27:36.211Z,63.99
2018-07-09T01:28:16.630Z,64.18
2018-07-09T01:28:57.025Z,63.99
2018-07-09T01:29:37.397Z,64.08
2018-07-09T01:30:18.165Z,64.18
2018-07-09T01:30:58.577Z,64.18
2018-07-09T01:31:39.063Z,64.28
2018-07-09T01:32:19.413Z,64.47
2018-07-09T01:32:59.784Z,64.76
2018-07-09T01:33:40.235Z,64.86
2018-07-09T01:34:20.925Z,64.76
2018-07-09T01:35:01.348Z,64.66
2018-07-09T01:35:41.736Z,64.76
2018-07-09T01:36:22.131Z,64.66
2018-07-09T01:37:02.597Z,64.66
2018-07-09T01:37:42.972Z,64.66
2018-07-09T01:38:23.430Z,65.24
2018-07-09T01:39:03.789Z,65.33
2018-07-09T01:39:44.231Z,65.24
2018-07-09T01:40:24.584Z,65.24
2018-07-09T01:41:05.000Z,65.14
2018-07-09T01:41:45.356Z,65.33
2018-07-09T01:42:25.756Z,65.24
2018-07-09T01:43:06.215Z,65.14
2018-07-09T01:43:46.681Z,65.24
2018-07-09T01:44:27.113Z,65.24
2018-07-09T01:45:07.461Z,65.14
2018-07-09T01:45:47.932Z,65.14
2018-07-09T01:46:28.331Z,65.24
2018-07-09T01:47:08.775Z,65.43
2018-07-09T01:47:49.251Z,65.24
2018-07-09T01:48:29.535Z,64.95
2018-07-09T01:49:10.031Z,65.33
2018-07-09T01:49:50.493Z,65.24
2018-07-09T01:50:30.887Z,65.24
2018-07-09T01:51:11.274Z,65.24
2018-07-09T01:51:51.711Z,65.53
2018-07-09T01:52:32.050Z,65.24
2018-07-09T01:53:12.444Z,65.14
2018-07-09T01:53:52.841Z,65.43
2018-07-09T01:54:33.293Z,65.43
2018-07-09T01:55:13.769Z,65.24
2018-07-09T01:55:54.118Z,65.24
2018-07-09T01:56:34.611Z,65.33
2018-07-09T01:57:14.891Z,65.81
2018-07-09T01:59:07.262Z,66.01
2018-07-09T01:59:47.552Z,65.81
2018-07-09T02:00:27.617Z,65.63
2018-07-09T02:01:08.116Z,65.63
2018-07-09T02:01:48.470Z,65.63
2018-07-09T02:02:29.003Z,65.63
2018-07-09T02:03:09.323Z,65.72
2018-07-09T02:03:49.753Z,65.72
2018-07-09T02:04:30.182Z,66.07
2018-07-09T02:05:10.540Z,66.17
2018-07-09T02:05:50.975Z,66.55
2018-07-09T02:06:31.423Z,66.27
2018-07-09T02:07:11.872Z,66.74
2018-07-09T02:07:52.263Z,66.74
2018-07-09T02:10:07.288Z,66.55
2018-07-09T02:10:47.531Z,66.94
2018-07-09T02:11:27.912Z,66.84
2018-07-09T02:12:08.326Z,66.94
2018-07-09T02:12:48.711Z,66.55
2018-07-09T02:13:29.134Z,66.74
2018-07-09T02:14:09.577Z,66.55
2018-07-09T02:14:50.057Z,66.65
2018-07-09T02:15:30.411Z,66.74
2018-07-09T02:16:10.849Z,66.84
2018-07-09T02:16:51.252Z,66.55
2018-07-09T02:17:31.707Z,66.74
2018-07-09T02:18:12.081Z,66.84
2018-07-09T02:18:52.519Z,66.94
2018-07-09T02:19:32.901Z,67.42
2018-07-09T02:20:13.313Z,67.61
2018-07-09T02:20:53.827Z,67.22
2018-07-09T02:21:34.143Z,67.22
2018-07-09T02:22:14.581Z,67.42
2018-07-09T02:22:55.212Z,67.13
2018-07-09T02:23:35.716Z,67.32
2018-07-09T02:24:16.075Z,67.42
2018-07-09T02:24:56.462Z,67.32
2018-07-09T02:25:36.876Z,67.22
2018-07-09T02:26:17.266Z,67.22
2018-07-09T02:26:57.700Z,67.13
2018-07-09T02:27:38.149Z,67.13
2018-07-09T02:28:18.507Z,67.22
2018-07-09T02:28:58.979Z,67.22
2018-07-09T02:29:39.364Z,67.13
2018-07-09T02:30:19.752Z,67.51
2018-07-09T02:31:00.217Z,67.03
2018-07-09T02:31:40.683Z,67.22
2018-07-09T02:32:20.998Z,67.22
2018-07-09T02:33:01.415Z,67.42
2018-07-09T02:33:41.884Z,67.51
2018-07-09T02:34:22.246Z,67.32
2018-07-09T02:35:02.655Z,67.32
2018-07-09T02:35:43.047Z,67.42
2018-07-09T02:36:23.457Z,67.32
2018-07-09T02:37:03.827Z,67.22
2018-07-09T02:37:44.341Z,67.22
2018-07-09T02:38:24.726Z,67.8
2018-07-09T02:39:05.182Z,67.8
2018-07-09T02:39:45.600Z,67.71
2018-07-09T02:40:25.955Z,68.09
2018-07-09T02:41:06.389Z,67.99
2018-07-09T02:41:46.743Z,68.09
2018-07-09T02:42:27.172Z,68.57
2018-07-09T02:43:07.582Z,68.44
2018-07-09T02:43:48.119Z,68.48
2018-07-09T02:44:28.468Z,68.54
2018-07-09T02:46:22.314Z,68.63
2018-07-09T02:47:02.983Z,68.54
2018-07-09T02:47:43.321Z,68.83
2018-07-09T02:48:23.816Z,68.63
2018-07-09T02:49:04.250Z,68.73
2018-07-09T02:49:44.607Z,68.63
2018-07-09T02:50:25.036Z,68.63
2018-07-09T02:51:05.439Z,68.63
2018-07-09T02:51:45.928Z,68.92
2018-07-09T02:52:26.287Z,69.12
2018-07-09T02:53:06.721Z,68.83
2018-07-09T02:53:47.082Z,68.63
2018-07-09T02:54:27.499Z,68.73
2018-07-09T02:55:07.967Z,69.4
2018-07-09T02:55:48.335Z,69.31
2018-07-09T02:56:28.753Z,69.21
2018-07-09T02:57:09.201Z,68.83
2018-07-09T02:57:49.615Z,69.21
2018-07-09T02:58:30.035Z,69.21
2018-07-09T02:59:10.450Z,69.02
2018-07-09T02:59:50.867Z,69.31
2018-07-09T03:00:31.338Z,69.4
2018-07-09T03:01:11.879Z,69.4
2018-07-09T03:01:52.133Z,69.12
2018-07-09T03:02:32.528Z,68.83
2018-07-09T03:03:12.824Z,69.4
2018-07-09T03:03:53.297Z,69.21
2018-07-09T03:04:33.667Z,69.02
2018-07-09T03:05:14.057Z,69.02
2018-07-09T03:05:54.595Z,68.92
2018-07-09T03:06:34.838Z,69.31
2018-07-09T03:07:15.265Z,69.5
2018-07-09T03:07:55.757Z,69.5
2018-07-09T03:08:36.138Z,69.98
2018-07-09T03:09:16.797Z,69.6
2018-07-09T03:09:57.051Z,69.6
2018-07-09T03:10:37.490Z,70.07
2018-07-09T03:11:17.876Z,69.4
2018-07-09T03:11:58.664Z,69.98
2018-07-09T03:12:41.545Z,69.6
2018-07-09T03:13:21.239Z,69.31
2018-07-09T03:14:01.761Z,70.07
2018-07-09T03:14:42.147Z,69.98
2018-07-09T03:15:22.459Z,70.07
2018-07-09T03:16:02.932Z,70.17
2018-07-09T03:16:43.244Z,70.07
2018-07-09T03:17:23.678Z,70.07
2018-07-09T03:18:04.308Z,69.89
2018-07-09T03:18:44.773Z,69.79
2018-07-09T03:19:25.207Z,70.56
2018-07-09T03:20:05.579Z,70.17
2018-07-09T03:20:45.992Z,70.46
2018-07-09T03:21:26.485Z,70.27
2018-07-09T03:22:06.838Z,70.37
2018-07-09T03:22:47.306Z,70.37
2018-07-09T03:23:27.703Z,71.04
2018-07-09T03:24:08.093Z,70.94
2018-07-09T03:24:48.519Z,70.84
2018-07-09T03:25:28.978Z,70.94
2018-07-09T03:26:09.366Z,70.75
2018-07-09T03:26:49.776Z,71.04
2018-07-09T03:27:30.176Z,70.94
2018-07-09T03:28:10.634Z,70.84
2018-07-09T03:28:51.004Z,70.65
2018-07-09T03:29:31.575Z,70.9
2018-07-09T03:30:11.805Z,70.52
2018-07-09T03:30:52.222Z,70.94
2018-07-09T03:31:32.685Z,70.56
2018-07-09T03:32:13.073Z,70.84
2018-07-09T03:32:53.537Z,70.94
2018-07-09T03:33:33.884Z,71.33
2018-07-09T03:34:14.344Z,71.19
2018-07-09T03:34:54.803Z,71.1
2018-07-09T03:35:35.241Z,71.04
2018-07-09T03:36:15.782Z,70.81
2018-07-09T03:36:56.114Z,71
2018-07-09T03:37:36.540Z,71.1
2018-07-09T03:38:16.890Z,71.19
2018-07-09T03:38:57.334Z,71.52
2018-07-09T03:39:37.718Z,70.94
2018-07-09T03:40:18.168Z,71.61
2018-07-09T03:40:58.637Z,70.65
2018-07-09T03:41:39.057Z,70.94
2018-07-09T03:42:19.507Z,70.52
2018-07-09T03:42:59.856Z,71.33
2018-07-09T03:43:40.318Z,71.04
2018-07-09T03:44:20.733Z,71.1
2018-07-09T03:45:01.141Z,71.1
2018-07-09T03:45:41.613Z,71
2018-07-09T03:46:22.014Z,71.1
2018-07-09T03:47:02.402Z,71.39
2018-07-09T03:47:42.776Z,71.29
2018-07-09T03:48:23.197Z,71.1
2018-07-09T03:49:03.605Z,71.29
2018-07-09T03:49:43.972Z,71.19
2018-07-09T03:50:24.474Z,71.1
2018-07-09T03:51:05.240Z,71.19
2018-07-09T03:51:45.248Z,71.39
2018-07-09T03:52:25.734Z,71.19
2018-07-09T03:53:06.051Z,71.1
2018-07-09T03:53:46.585Z,71.67
2018-07-09T03:54:26.910Z,71.1
2018-07-09T03:55:07.354Z,71.29
2018-07-09T03:55:47.828Z,71.29
2018-07-09T03:56:28.218Z,71.29
2018-07-09T03:57:08.593Z,71.39
2018-07-09T03:57:49.002Z,71.1
2018-07-09T03:58:29.427Z,71.39
2018-07-09T03:59:09.777Z,71
2018-07-09T03:59:50.211Z,71.04
2018-07-09T04:00:30.669Z,70.94
2018-07-09T04:01:11.850Z,70.65
2018-07-09T04:01:52.255Z,70.75
2018-07-09T04:02:32.743Z,70.75
2018-07-09T04:03:13.308Z,70.56
2018-07-09T04:03:53.728Z,70.37
2018-07-09T04:04:34.115Z,70.46
2018-07-09T04:42:35.121Z,60.83
2018-07-09T04:43:15.484Z,60.93
2018-07-09T04:43:55.850Z,60.38
2018-07-09T04:44:36.179Z,60.19
2018-07-09T04:45:16.616Z,59.9
2018-07-09T04:45:57.049Z,59.8
2018-07-09T04:46:37.591Z,59.42
2018-07-09T04:47:17.927Z,58.84
2018-07-09T04:47:58.436Z,58.07
2018-07-09T04:48:38.811Z,58.29
2018-07-09T04:49:19.250Z,57.42
2018-07-09T04:49:59.637Z,57.42
2018-07-09T04:50:40.037Z,57.26
2018-07-09T04:51:20.501Z,56.96
2018-07-09T04:52:00.917Z,57.16
2018-07-09T04:52:41.336Z,56.77
2018-07-09T04:53:21.749Z,56.1
2018-07-09T04:54:19.620Z,55.83
2018-07-09T04:54:59.994Z,55.35
2018-07-09T04:55:47.121Z,54.71
2018-07-09T04:59:42.191Z,52.41
2018-07-09T05:00:21.635Z,52.22
2018-07-09T05:01:01.812Z,51.76
2018-07-09T05:01:42.296Z,51.95
2018-07-09T05:02:22.563Z,50.98
2018-07-09T05:03:03.156Z,50.72
2018-07-09T05:03:43.484Z,50.24
2018-07-09T05:04:23.933Z,50.14
2018-07-09T05:05:04.923Z,49.68
2018-07-09T05:05:45.405Z,48.9
2018-07-09T05:06:25.758Z,48.81
2018-07-09T05:07:06.366Z,48.81
2018-07-09T05:07:46.849Z,48.35
2018-07-09T05:08:27.213Z,48.35
2018-07-09T05:09:07.640Z,47.5
2018-07-09T05:09:48.009Z,47.2
2018-07-09T05:10:28.448Z,47.3
2018-07-09T05:11:08.838Z,46.92
2018-07-09T05:11:49.343Z,46.92
2018-07-09T05:12:29.676Z,46.16
2018-07-09T05:13:10.101Z,45.78
2018-07-09T05:13:50.477Z,45.48
2018-07-09T05:14:30.944Z,45.48
2018-07-09T05:15:11.470Z,45.31
2018-07-09T05:15:51.891Z,44.92
2018-07-09T05:16:32.294Z,43.88
2018-07-09T05:17:12.764Z,43.4
2018-07-09T05:17:53.112Z,43.1
2018-07-09T05:21:50.660Z,41.96
2018-07-09T05:22:32.172Z,41.78
2018-07-09T05:23:12.624Z,41.78
2018-07-09T05:23:52.979Z,42
2018-07-09T05:24:33.433Z,41.51
2018-07-09T05:25:14.155Z,41.22
2018-07-09T05:25:54.513Z,40.83
2018-07-09T05:26:34.867Z,40.44
2018-07-09T05:27:15.266Z,40.08
2018-07-09T05:27:55.759Z,39.98
2018-07-09T05:28:36.658Z,40.56
2018-07-09T05:29:17.075Z,40.08
2018-07-09T05:29:57.430Z,39.98
2018-07-09T05:30:37.880Z,39.88
2018-07-09T05:31:18.387Z,39.39
2018-07-09T05:31:58.766Z,39.1
2018-07-09T05:32:39.189Z,39.31
2018-07-09T05:33:19.626Z,39.12
2018-07-09T05:34:00.031Z,38.83
2018-07-09T05:34:40.475Z,38.83
2018-07-09T05:35:20.856Z,38.93
2018-07-09T05:36:01.306Z,39.12
2018-07-09T05:36:41.666Z,39.12
2018-07-09T05:37:22.128Z,38.73
2018-07-09T05:38:02.505Z,38.73
2018-07-09T05:38:42.979Z,38.83
2018-07-09T05:39:23.403Z,38.34
2018-07-09T05:40:04.007Z,39.12
2018-07-09T05:40:44.401Z,38.83
2018-07-09T05:41:24.689Z,38.64
2018-07-09T05:42:05.087Z,38.46
2018-07-09T05:42:45.567Z,38.07
2018-07-09T05:43:25.997Z,37.87
2018-07-09T05:44:06.377Z,38.17
2018-07-09T05:44:47.062Z,38.26
2018-07-09T05:45:27.456Z,37.68
2018-07-09T05:46:07.986Z,37.68
2018-07-09T05:46:48.638Z,37.48
2018-07-09T05:47:29.260Z,37.48
2018-07-09T05:48:09.986Z,37.68
2018-07-09T05:48:50.520Z,37.39
2018-07-09T05:49:31.307Z,37.5
2018-07-09T05:50:12.735Z,37.02
2018-07-09T05:50:53.361Z,37.12
2018-07-09T05:51:34.719Z,37.21
2018-07-09T05:52:14.515Z,37.02
2018-07-09T05:52:55.038Z,37.12
2018-07-09T05:53:36.213Z,37.21
2018-07-09T05:54:16.900Z,37.21
2018-07-09T05:54:58.458Z,36.45
2018-07-09T05:55:38.874Z,36.65
2018-07-09T05:56:19.729Z,36.55
2018-07-09T05:57:00.922Z,36.45
2018-07-09T05:57:41.243Z,36.55
2018-07-09T05:58:22.264Z,36.45
2018-07-09T05:59:03.462Z,36.53
2018-07-09T05:59:44.112Z,36.82
2018-07-09T06:00:25.429Z,37.12
2018-07-09T06:01:06.866Z,37.6
2018-07-09T06:01:47.874Z,37.6
2018-07-09T06:02:27.969Z,37.29
2018-07-09T06:03:10.797Z,37.39
2018-07-09T06:03:51.332Z,37.31
2018-07-09T06:04:32.442Z,37.12
2018-07-09T06:05:13.712Z,37.04
2018-07-09T06:05:54.778Z,36.55
2018-07-09T06:06:35.755Z,36.65
2018-07-09T06:07:15.660Z,36.16
2018-07-09T06:07:56.944Z,36.16
2018-07-09T06:08:37.487Z,36.25
2018-07-09T06:09:18.247Z,36.35
2018-07-09T06:09:58.805Z,36.35
2018-07-09T06:10:39.751Z,36.25
2018-07-09T06:11:21.301Z,36.35
2018-07-09T06:12:01.376Z,36.25
2018-07-09T06:12:42.055Z,35.67
2018-07-09T06:13:22.567Z,35.67
2018-07-09T06:14:03.531Z,35.57
2018-07-09T06:14:43.865Z,35.57
2018-07-09T06:15:24.732Z,35.77
2018-07-09T06:16:05.189Z,35.86
2018-07-09T06:16:46.067Z,35.77
2018-07-09T06:17:26.962Z,34.78
2018-07-09T06:18:07.590Z,34.78
2018-07-09T06:18:48.525Z,34.88
2018-07-09T06:19:29.273Z,34.48
2018-07-09T06:20:10.094Z,34.86
2018-07-09T06:20:50.619Z,35.03
2018-07-09T06:21:31.539Z,35.61
2018-07-09T06:22:12.715Z,35.91
2018-07-09T06:22:53.653Z,35.71
2018-07-09T06:23:34.444Z,35.52
2018-07-09T06:24:15.916Z,35.33
2018-07-09T06:24:56.078Z,35.71
2018-07-09T06:25:36.673Z,35.83
2018-07-09T06:26:17.190Z,35.25
2018-07-09T06:26:58.091Z,35.44
2018-07-09T06:27:38.552Z,35.34
2018-07-09T06:28:19.464Z,34.76
2018-07-09T06:29:00.446Z,34.37
2018-07-09T06:31:14.264Z,34.09
2018-07-09T06:31:59.075Z,34.29
2018-07-09T06:32:43.320Z,33.78
2018-07-09T06:33:24.043Z,33.39
2018-07-09T06:34:05.134Z,34.37
2018-07-09T06:34:45.915Z,34.35
2018-07-09T06:35:26.416Z,34.74
2018-07-09T06:36:06.954Z,35.33
2018-07-09T06:36:48.591Z,35.33
2018-07-09T06:37:28.632Z,35.52
2018-07-09T06:38:09.347Z,34.74
2018-07-09T06:38:50.148Z,34.47
2018-07-09T06:39:30.902Z,34.37
2018-07-09T06:40:11.717Z,34.56
2018-07-09T06:40:52.836Z,34.27
2018-07-09T06:41:34.093Z,34.08
2018-07-09T06:42:14.860Z,34.17
2018-07-09T06:42:55.829Z,33.59
2018-07-09T06:43:36.549Z,33.39
2018-07-09T06:44:17.358Z,33.49
2018-07-09T06:44:58.283Z,34.27
2018-07-09T06:45:39.075Z,33.98
2018-07-09T06:46:20.264Z,34.17
2018-07-09T06:47:00.568Z,34.29
2018-07-09T06:47:41.100Z,33.51
2018-07-09T06:48:22.137Z,33.51
2018-07-09T06:49:02.880Z,34.17
2018-07-09T06:49:43.587Z,34.08
2018-07-09T06:50:24.547Z,34.27
2018-07-09T06:51:05.833Z,34.27
2018-07-09T06:51:47.178Z,34.27
2018-07-09T06:52:27.887Z,34.27
2018-07-09T06:53:09.624Z,34.29
2018-07-09T06:53:49.597Z,34.29
2018-07-09T06:54:30.325Z,34.29
2018-07-09T06:55:12.095Z,34.48
2018-07-09T06:55:52.792Z,33.98
2018-07-09T06:56:33.586Z,33.98
2018-07-09T06:57:14.220Z,33.49
2018-07-09T06:57:55.007Z,33.49
2018-07-09T06:58:35.902Z,34
2018-07-09T06:59:16.581Z,34.09
2018-07-09T06:59:57.188Z,33.12
2018-07-09T07:00:38.616Z,33.51
2018-07-09T07:09:08.815Z,33.49
2018-07-09T07:10:04.030Z,33.11
2018-07-09T07:11:53.065Z,33.11
2018-07-09T07:12:33.618Z,33.2
2018-07-09T07:13:14.859Z,33.49
2018-07-09T07:13:56.059Z,33.11
2018-07-09T07:14:36.608Z,32.62
2018-07-09T07:15:17.364Z,32.32
2018-07-09T07:15:57.873Z,32.03
2018-07-09T07:16:38.323Z,31.64
2018-07-09T07:17:22.131Z,31.74
2018-07-09T07:18:03.946Z,31.45
2018-07-09T07:18:44.945Z,32.03
2018-07-09T07:19:25.786Z,32.62
2018-07-09T07:20:06.801Z,33.11
2018-07-09T07:20:50.529Z,33.2
2018-07-09T07:24:15.038Z,32.52
2018-07-09T07:24:52.689Z,32.42
2018-07-09T07:25:33.034Z,31.74
2018-07-09T07:26:13.528Z,31.45
2018-07-09T07:26:54.059Z,31.45
2018-07-09T07:27:34.520Z,31.85
2018-07-09T07:28:14.948Z,31.74
2018-07-09T07:28:55.548Z,31.54
2018-07-09T07:29:36.164Z,31.46
2018-07-09T07:30:16.751Z,31.37
2018-07-09T07:30:58.518Z,31.46
2018-07-09T07:31:39.125Z,31.07
2018-07-09T07:32:19.939Z,30.7
2018-07-09T07:33:00.485Z,30.51
2018-07-09T07:33:42.815Z,30.02
2018-07-09T07:34:22.709Z,30.41
2018-07-09T07:35:04.174Z,30.41
2018-07-09T07:35:43.957Z,30.31
2018-07-09T07:36:24.499Z,29.82
2018-07-09T07:37:06.174Z,30.13
2018-07-09T07:37:47.199Z,30.03
2018-07-09T07:38:28.199Z,29.74
2018-07-09T07:39:08.919Z,29.25
2018-07-09T07:39:49.751Z,28.49
2018-07-09T07:40:30.665Z,29.15
2018-07-09T07:41:12.191Z,29.35
2018-07-09T07:41:52.675Z,29.43
2018-07-09T07:42:33.601Z,29.82
2018-07-09T07:43:14.543Z,29.53
2018-07-09T07:43:55.685Z,29.82
2018-07-09T07:44:36.171Z,30.13
2018-07-09T07:45:17.612Z,30.02
2018-07-09T07:45:59.282Z,30.02
2018-07-09T07:46:40.501Z,30.21
2018-07-09T07:47:21.484Z,30.7
2018-07-09T07:48:02.545Z,30.42
2018-07-09T07:48:43.177Z,30.11
2018-07-09T07:49:23.935Z,30.11
2018-07-09T07:50:04.442Z,30.71
2018-07-09T07:50:45.301Z,30.51
2018-07-09T07:51:25.868Z,30.42
2018-07-09T07:52:07.513Z,30.32
2018-07-09T07:52:49.257Z,30.13
2018-07-09T07:53:31.186Z,30.22
2018-07-09T07:54:11.686Z,29.74
2018-07-09T07:54:52.609Z,30.15
2018-07-09T07:55:33.429Z,30.05
2018-07-09T07:56:13.653Z,30.15
2018-07-09T07:56:54.314Z,29.75
2018-07-09T07:57:35.076Z,29.95
2018-07-09T07:58:15.969Z,29.46
2018-07-09T07:58:56.392Z,29.47
2018-07-09T07:59:37.522Z,29.47
2018-07-09T08:00:18.266Z,29.18
2018-07-09T08:00:59.512Z,29.08
2018-07-09T08:01:39.934Z,29.18
2018-07-09T08:02:20.477Z,29.18
2018-07-09T08:03:01.460Z,28.69
2018-07-09T08:03:42.164Z,28.5
2018-07-09T08:04:22.899Z,28.5
2018-07-09T08:05:04.681Z,28.68
2018-07-09T08:05:44.644Z,29.17
2018-07-09T08:06:27.395Z,29.08
2018-07-09T08:07:07.841Z,29.08
2018-07-09T08:07:48.393Z,29.18
2018-07-09T08:08:30.178Z,29.47
2018-07-09T08:09:09.801Z,29.47
2018-07-09T08:09:50.557Z,29.18
2018-07-09T08:10:31.100Z,28.59
2018-07-09T08:11:11.722Z,28.69
2018-07-09T08:11:52.553Z,28.69
2018-07-09T08:13:27.984Z,29.1
2018-07-09T08:13:56.192Z,28.91
2018-07-09T08:14:36.693Z,29.2
2018-07-09T08:15:17.340Z,28.11
2018-07-09T08:15:58.075Z,28.2
2018-07-09T08:16:38.495Z,28.09
2018-07-09T08:17:19.914Z,28.39
2018-07-09T08:18:00.402Z,28.49
2018-07-09T08:18:40.858Z,28.39
2018-07-09T08:19:21.618Z,28.29
2018-07-09T08:20:02.319Z,28.09
2018-07-09T08:20:42.766Z,27.9
2018-07-09T08:21:24.729Z,28.38
2018-07-09T08:22:05.092Z,28.57
2018-07-09T08:22:46.730Z,28.67
2018-07-09T08:23:27.051Z,28.38
2018-07-09T08:24:07.364Z,28.18
2018-07-09T08:24:48.844Z,28.58
2018-07-09T08:25:29.866Z,28.19
2018-07-09T08:26:10.130Z,27.9
2018-07-09T08:26:50.756Z,27.61
2018-07-09T08:27:31.152Z,27.61
2018-07-09T08:28:12.745Z,27.52
2018-07-09T08:28:53.431Z,27.22
2018-07-09T08:29:33.345Z,27.41
2018-07-09T08:30:15.049Z,26.64
2018-07-09T08:32:09.792Z,26.64
2018-07-09T08:32:49.938Z,26.74
2018-07-09T08:33:30.333Z,26.45
2018-07-09T08:34:11.546Z,26.35
2018-07-09T08:34:52.122Z,26.74
2018-07-09T08:35:33.205Z,26.64
2018-07-09T08:36:13.894Z,26.54
2018-07-09T08:36:54.281Z,25.98
2018-07-09T08:37:34.779Z,25.78
2018-07-09T08:38:15.232Z,25.78
2018-07-09T08:38:55.652Z,25.78
2018-07-09T08:39:37.660Z,25.78
2018-07-09T08:40:17.508Z,25.68
2018-07-09T08:40:58.458Z,25.99
2018-07-09T08:41:38.950Z,25.78
2018-07-09T08:42:20.148Z,25.99
2018-07-09T08:43:00.525Z,25.89
2018-07-09T08:43:40.930Z,25.79
2018-07-09T08:44:22.614Z,25.79
2018-07-09T08:46:27.226Z,25.4
2018-07-09T08:47:08.016Z,25.7
2018-07-09T08:47:48.607Z,25.5
2018-07-09T08:48:29.124Z,25.79
2018-07-09T08:49:09.688Z,25.6
2018-07-09T08:49:50.248Z,25.6
2018-07-09T08:50:30.551Z,25.6
2018-07-09T08:51:11.276Z,25.22
2018-07-09T08:51:51.848Z,25.42
2018-07-09T08:52:32.374Z,25.42
2018-07-09T08:53:13.867Z,24.92
2018-07-09T08:53:54.051Z,25.22
2018-07-09T08:56:07.990Z,25.12
2018-07-09T08:56:48.784Z,25.02
2018-07-09T08:57:29.124Z,24.73
2018-07-09T08:58:10.376Z,25.04
2018-07-09T08:58:50.798Z,24.92
2018-07-09T08:59:31.437Z,25.23
2018-07-09T09:00:12.357Z,25.04
2018-07-09T09:00:53.934Z,24.74
2018-07-09T09:01:34.741Z,24.92
2018-07-09T09:02:15.229Z,25.04
2018-07-09T09:02:55.800Z,24.93
2018-07-09T09:03:36.462Z,25.13
2018-07-09T09:04:17.100Z,24.84
2018-07-09T09:04:57.570Z,24.15
2018-07-09T09:05:38.092Z,24.64
2018-07-09T09:06:18.738Z,24.44
2018-07-09T09:06:59.286Z,24.84
2018-07-09T09:07:39.983Z,25.02
2018-07-09T09:08:21.021Z,24.73
2018-07-09T09:09:02.401Z,25.22
2018-07-09T09:09:43.964Z,25.02
2018-07-09T09:10:24.239Z,25.23
2018-07-09T09:11:04.915Z,25.13
2018-07-09T09:11:45.327Z,25.04
2018-07-09T09:12:25.827Z,25.13
2018-07-09T09:13:06.779Z,25.04
2018-07-09T09:13:47.723Z,24.44
2018-07-09T09:14:28.140Z,24.54
2018-07-09T09:15:08.670Z,24.64
2018-07-09T09:15:49.334Z,24.85
2018-07-09T09:16:29.950Z,24.55
2018-07-09T09:17:11.409Z,24.07
2018-07-09T09:17:51.969Z,24.64
2018-07-09T09:18:33.512Z,24.16
2018-07-09T09:20:31.595Z,24.44
2018-07-09T09:21:11.609Z,24.07
2018-07-09T09:21:51.403Z,24.55
2018-07-09T09:22:32.002Z,24.27
2018-07-09T09:23:12.521Z,23.98
2018-07-09T09:23:52.923Z,24.18
2018-07-09T09:24:33.423Z,24.08
2018-07-09T09:25:14.387Z,24.18
2018-07-09T09:25:54.528Z,23.69
2018-07-09T09:26:35.027Z,24.37
2018-07-09T09:27:17.008Z,24.27
2018-07-09T09:27:57.239Z,24.08
2018-07-09T09:28:37.831Z,23.59
2018-07-09T09:34:48.417Z,23.7
2018-07-09T09:35:28.902Z,23.6
2018-07-09T09:36:09.483Z,23.61
2018-07-09T09:36:50.352Z,23.32
2018-07-09T09:37:31.409Z,23.33
2018-07-09T09:38:12.261Z,23.03
2018-07-09T09:38:54.763Z,23.23
2018-07-09T09:39:36.150Z,23.13
2018-07-09T09:40:15.852Z,23.13
2018-07-09T09:40:58.920Z,23.13
2018-07-09T09:41:39.028Z,23.13
2018-07-09T09:42:20.567Z,23.33
2018-07-09T09:43:00.999Z,23.43
2018-07-09T09:43:41.415Z,23.43
2018-07-09T09:44:23.160Z,23.53
2018-07-09T09:45:03.213Z,23.23
2018-07-09T09:45:44.277Z,23.52
2018-07-09T09:46:24.644Z,23.53
2018-07-09T09:47:06.426Z,23.53
2018-07-09T09:47:46.532Z,23.43
2018-07-09T09:48:27.899Z,23.23
2018-07-09T09:49:07.862Z,23.23
2018-07-09T09:49:49.174Z,23.23
2018-07-09T09:50:29.991Z,23.22
2018-07-09T09:51:10.536Z,23.61
2018-07-09T09:51:51.530Z,23.52
2018-07-09T09:52:33.578Z,23.81
2018-07-09T09:53:14.034Z,24.01
2018-07-09T09:53:54.562Z,24.2
2018-07-09T09:54:35.028Z,24.1
2018-07-09T09:55:15.435Z,24.2
2018-07-09T09:55:55.795Z,24.2
2018-07-09T09:56:36.308Z,23.61
2018-07-09T09:57:16.841Z,23.91
2018-07-09T09:57:57.387Z,23.42
2018-07-09T09:58:37.893Z,23.33
2018-07-09T09:59:18.370Z,23.63
2018-07-09T09:59:58.822Z,23.03
2018-07-09T10:00:39.193Z,23.13
2018-07-09T10:01:19.923Z,23.14
2018-07-09T10:02:00.398Z,23.53
2018-07-09T10:02:40.995Z,23.55
2018-07-09T10:03:21.721Z,23.16
2018-07-09T10:04:02.378Z,23.16
2018-07-09T10:04:42.977Z,22.96
2018-07-09T10:05:23.508Z,22.86
2018-07-09T10:44:29.198Z,23.14
2018-07-09T10:45:09.984Z,23.34
2018-07-09T10:45:50.506Z,23.14
2018-07-09T10:46:32.636Z,23.14
2018-07-09T10:47:13.703Z,23.54
2018-07-09T10:47:55.048Z,23.44
2018-07-09T10:48:39.529Z,23.54
2018-07-09T10:49:21.101Z,23.53